Time;durP1;ratioP1;P1;durP2;ratioP2;P2;SDS_P1;SDS_P2;PMS_P1;PMS_P2;Temp;Humidity;BMP_temperature;BMP_pressure;BME280_temperature;BME280_humidity;BME280_pressure;Samples;Min_cycle;Max_cycle;Signal;HPM_P1;HPM_P2
2022/07/12 00:01:55;;;;;;;1.98;1.77;;;18.80;70.80;;;;;;5095503;28;20051;-73
2022/07/12 00:04:20;;;;;;;2.38;1.90;;;18.80;71.70;;;;;;5113273;28;20032;-73
2022/07/12 00:06:46;;;;;;;2.38;2.17;;;18.60;70.80;;;;;;5113220;28;20016;-73
2022/07/12 00:09:12;;;;;;;2.10;1.90;;;18.40;71.30;;;;;;5116435;28;20453;-73
2022/07/12 00:11:37;;;;;;;2.85;2.13;;;18.40;71.90;;;;;;5099230;28;20090;-73
2022/07/12 00:14:04;;;;;;;3.72;2.20;;;18.50;71.80;;;;;;5099335;28;20028;-73
2022/07/12 00:16:30;;;;;;;2.95;2.50;;;18.60;71.40;;;;;;5099138;28;20027;-73
2022/07/12 00:18:55;;;;;;;2.90;2.20;;;18.60;71.30;;;;;;5117125;28;20032;-73
2022/07/12 00:21:21;;;;;;;4.78;2.35;;;18.60;71.00;;;;;;5099167;28;20028;-73
2022/07/12 00:23:46;;;;;;;4.78;2.30;;;18.60;70.90;;;;;;5116942;28;20107;-73
2022/07/12 00:26:12;;;;;;;2.15;1.90;;;18.60;71.30;;;;;;5117042;28;20021;-73
2022/07/12 00:28:38;;;;;;;2.30;2.10;;;18.50;71.50;;;;;;5116869;28;20077;-73
2022/07/12 00:31:04;;;;;;;2.28;1.80;;;18.30;71.80;;;;;;5116811;28;20039;-73
2022/07/12 00:33:29;;;;;;;2.65;2.00;;;18.30;71.70;;;;;;5116728;28;20028;-73
2022/07/12 00:35:55;;;;;;;2.58;2.13;;;18.30;71.50;;;;;;5098953;28;20032;-73
2022/07/12 00:38:21;;;;;;;3.38;2.65;;;18.20;71.50;;;;;;5116602;28;20017;-73
2022/07/12 00:40:47;;;;;;;2.47;2.00;;;18.30;71.50;;;;;;5116645;28;20497;-73
2022/07/12 00:43:13;;;;;;;2.45;1.90;;;18.30;71.10;;;;;;5116576;28;20510;-73
2022/07/12 00:45:39;;;;;;;2.17;1.70;;;18.30;71.10;;;;;;5116536;28;20032;-73
2022/07/12 00:48:05;;;;;;;2.47;1.70;;;18.30;70.90;;;;;;5098540;28;20036;-73
2022/07/12 00:50:30;;;;;;;1.77;1.67;;;18.30;70.70;;;;;;5116427;28;20031;-73
2022/07/12 00:52:56;;;;;;;3.75;1.90;;;18.20;70.80;;;;;;5116390;28;20032;-73
2022/07/12 00:55:23;;;;;;;2.50;2.05;;;18.10;71.00;;;;;;5116497;28;20052;-73
2022/07/12 00:57:49;;;;;;;2.90;1.92;;;18.10;71.30;;;;;;5116111;28;20116;-73
2022/07/12 01:00:17;;;;;;;2.65;2.00;;;18.00;71.10;;;;;;5116186;28;20028;-73
2022/07/12 01:02:43;;;;;;;2.40;2.10;;;18.00;71.30;;;;;;5116219;28;20070;-72
2022/07/12 01:05:10;;;;;;;3.80;2.38;;;17.90;71.50;;;;;;5116169;28;20031;-73
2022/07/12 01:07:37;;;;;;;2.38;2.08;;;18.00;71.30;;;;;;5116118;28;20020;-73
2022/07/12 01:10:04;;;;;;;3.35;2.50;;;18.00;71.90;;;;;;5116073;28;20045;-73
2022/07/12 01:12:30;;;;;;;2.83;2.40;;;17.90;71.20;;;;;;5116045;28;20024;-73
2022/07/12 01:14:56;;;;;;;3.45;2.50;;;17.80;71.00;;;;;;5115981;28;20035;-73
2022/07/12 01:17:24;;;;;;;3.80;2.50;;;17.80;71.10;;;;;;5115952;28;20048;-72
2022/07/12 01:19:51;;;;;;;2.60;2.35;;;17.80;71.20;;;;;;5114536;28;20028;-73
2022/07/12 01:22:18;;;;;;;2.63;2.17;;;17.90;70.90;;;;;;5115854;28;20430;-73
2022/07/12 01:24:45;;;;;;;3.00;2.47;;;17.90;71.00;;;;;;5115783;28;20028;-72
2022/07/12 01:27:12;;;;;;;3.05;2.42;;;17.80;72.00;;;;;;5097838;28;20016;-73
2022/07/12 01:29:38;;;;;;;3.17;2.45;;;17.80;71.50;;;;;;5115634;28;20049;-72
2022/07/12 01:32:24;;;;;;;2.78;2.42;;;17.60;71.80;;;;;;5115652;28;20028;-72
2022/07/12 01:34:52;;;;;;;3.28;2.45;;;17.60;71.80;;;;;;5115790;28;20057;-72
2022/07/12 01:37:19;;;;;;;2.78;2.50;;;17.60;71.60;;;;;;5115564;28;20051;-73
2022/07/12 01:39:46;;;;;;;4.10;2.22;;;17.60;71.40;;;;;;5115450;28;20087;-73
2022/07/12 01:42:12;;;;;;;2.72;2.15;;;17.70;71.10;;;;;;5115422;28;20028;-73
2022/07/12 01:44:38;;;;;;;3.30;2.28;;;17.70;71.20;;;;;;5115372;28;20055;-73
2022/07/12 01:47:04;;;;;;;3.28;2.40;;;17.70;70.80;;;;;;5115440;28;20016;-72
2022/07/12 01:49:29;;;;;;;3.83;2.40;;;17.60;70.90;;;;;;5080789;28;20115;-72
2022/07/12 01:51:55;;;;;;;2.80;2.28;;;17.50;71.20;;;;;;5080755;28;20046;-73
2022/07/12 01:54:22;;;;;;;2.88;2.28;;;17.60;71.10;;;;;;5115210;28;20028;-73
2022/07/12 01:56:48;;;;;;;3.47;2.40;;;17.60;70.70;;;;;;5114977;28;20024;-72
2022/07/12 01:59:14;;;;;;;4.70;2.45;;;17.60;70.50;;;;;;5097352;28;20024;-72
2022/07/12 02:01:40;;;;;;;5.30;2.38;;;17.50;70.70;;;;;;5115011;28;20032;-72
2022/07/12 02:04:05;;;;;;;3.08;2.45;;;17.40;71.60;;;;;;5114980;28;20016;-73
2022/07/12 02:06:33;;;;;;;3.67;2.65;;;17.40;71.10;;;;;;5114999;28;20033;-73
2022/07/12 02:08:59;;;;;;;3.53;2.70;;;17.50;70.90;;;;;;5114983;28;20035;-73
2022/07/12 02:11:24;;;;;;;4.32;2.35;;;17.50;71.00;;;;;;5096841;28;20486;-73
2022/07/12 02:13:50;;;;;;;2.90;2.30;;;17.40;70.80;;;;;;5114778;28;20043;-72
2022/07/12 02:16:16;;;;;;;3.30;2.42;;;17.40;70.90;;;;;;5096772;28;20091;-72
2022/07/12 02:18:42;;;;;;;4.95;2.50;;;17.40;71.10;;;;;;5114675;28;20046;-72
2022/07/12 02:21:07;;;;;;;4.15;2.85;;;17.30;71.30;;;;;;5096890;28;20048;-73
2022/07/12 02:23:33;;;;;;;3.47;2.70;;;17.30;71.70;;;;;;5114635;28;20024;-73
2022/07/12 02:25:59;;;;;;;3.83;2.50;;;17.20;72.10;;;;;;5114610;28;20029;-73
2022/07/12 02:28:24;;;;;;;4.28;2.50;;;17.20;72.20;;;;;;5096562;28;20089;-73
2022/07/12 02:30:50;;;;;;;3.53;2.78;;;17.20;71.60;;;;;;5096233;28;20028;-73
2022/07/12 02:33:16;;;;;;;2.47;2.20;;;17.30;71.60;;;;;;5079933;28;20016;-72
2022/07/12 02:35:42;;;;;;;3.17;2.55;;;17.20;71.70;;;;;;5114438;28;20070;-73
2022/07/12 02:38:08;;;;;;;2.83;2.47;;;17.10;71.60;;;;;;5114391;28;20463;-73
2022/07/12 02:43:18;;;;;;;3.50;2.25;;;17.00;72.30;;;;;;5114393;28;20054;-72
2022/07/12 02:45:43;;;;;;;2.63;2.22;;;17.00;72.40;;;;;;5114249;28;20048;-73
2022/07/12 02:48:12;;;;;;;3.42;1.70;;;17.10;71.80;;;;;;5096239;28;20032;-73
2022/07/12 02:50:41;;;;;;;3.08;1.83;;;17.00;71.30;;;;;;5114146;28;20034;-72
2022/07/12 02:53:07;;;;;;;1.30;1.20;;;16.90;71.60;;;;;;5114132;28;20030;-73
2022/07/12 02:55:34;;;;;;;1.50;1.23;;;16.70;71.60;;;;;;5113961;28;20028;-73
2022/07/12 02:58:00;;;;;;;2.45;1.77;;;16.70;72.20;;;;;;5113850;28;20131;-73
2022/07/12 03:00:26;;;;;;;2.08;1.80;;;16.80;72.30;;;;;;5113948;28;20048;-73
2022/07/12 03:02:52;;;;;;;3.55;1.70;;;16.70;72.50;;;;;;5113926;28;20024;-73
2022/07/12 03:05:18;;;;;;;3.13;2.25;;;16.70;73.60;;;;;;5113934;28;20039;-72
2022/07/12 03:07:43;;;;;;;3.05;2.22;;;16.80;72.90;;;;;;5113908;28;20036;-73
2022/07/12 03:10:10;;;;;;;2.85;1.92;;;16.80;72.60;;;;;;5113855;28;20028;-73
2022/07/12 03:12:36;;;;;;;2.00;1.80;;;16.90;72.10;;;;;;5096131;28;20054;-73
2022/07/12 03:15:02;;;;;;;4.63;2.10;;;16.90;71.80;;;;;;5113798;28;20032;-73
2022/07/12 03:17:28;;;;;;;3.15;2.28;;;16.90;71.80;;;;;;5113739;28;20028;-73
2022/07/12 03:19:53;;;;;;;3.92;2.47;;;16.80;72.30;;;;;;5113618;28;20049;-73
2022/07/12 03:22:19;;;;;;;3.33;2.53;;;16.80;72.50;;;;;;5113654;28;20024;-73
2022/07/12 03:24:45;;;;;;;5.15;2.13;;;16.80;72.60;;;;;;5113660;28;20032;-73
2022/07/12 03:27:10;;;;;;;3.65;2.05;;;16.90;72.10;;;;;;5113625;28;20031;-73
2022/07/12 03:29:36;;;;;;;3.70;2.03;;;16.70;71.90;;;;;;5113508;28;20043;-73
2022/07/12 03:32:03;;;;;;;2.50;2.08;;;16.70;72.30;;;;;;5113564;28;20024;-73
2022/07/12 03:34:28;;;;;;;3.05;1.50;;;16.70;72.40;;;;;;5113556;28;20046;-73
2022/07/12 03:36:54;;;;;;;1.60;1.40;;;16.80;72.30;;;;;;5095824;28;20040;-73
2022/07/12 03:39:20;;;;;;;1.58;1.30;;;16.70;72.60;;;;;;5095611;28;20111;-73
2022/07/12 03:41:45;;;;;;;1.92;1.40;;;16.60;74.00;;;;;;5113476;28;20032;-73
2022/07/12 03:44:11;;;;;;;2.20;1.80;;;16.60;73.40;;;;;;5116859;28;20032;-73
2022/07/12 03:46:36;;;;;;;3.05;2.08;;;16.50;73.30;;;;;;5117824;28;20020;-73
2022/07/12 03:49:02;;;;;;;2.58;1.95;;;16.50;73.40;;;;;;5082948;28;20028;-73
2022/07/12 03:51:28;;;;;;;2.83;1.90;;;16.40;73.40;;;;;;5117592;28;20079;-73
2022/07/12 03:53:53;;;;;;;4.70;2.53;;;16.40;73.60;;;;;;5117555;28;20036;-73
2022/07/12 03:59:03;;;;;;;3.10;1.75;;;16.40;72.70;;;;;;5117328;28;20119;-73
2022/07/12 04:01:29;;;;;;;2.50;1.80;;;16.40;73.00;;;;;;5117417;28;20032;-73
2022/07/12 04:03:55;;;;;;;4.50;2.55;;;16.40;72.80;;;;;;5117352;28;20081;-73
2022/07/12 04:06:21;;;;;;;1.60;1.20;;;16.40;72.50;;;;;;5117338;28;20024;-73
2022/07/12 04:08:47;;;;;;;4.90;1.40;;;16.20;72.80;;;;;;5099303;28;20040;-73
2022/07/12 04:11:12;;;;;;;2.35;1.45;;;16.20;73.10;;;;;;5099340;28;20038;-73
2022/07/12 04:13:38;;;;;;;2.10;1.50;;;16.20;73.50;;;;;;5117188;28;20085;-73
2022/07/12 04:16:05;;;;;;;1.60;1.50;;;16.30;73.20;;;;;;5117261;28;20040;-73
2022/07/12 04:18:31;;;;;;;3.17;1.90;;;16.40;73.00;;;;;;5116997;28;20020;-73
2022/07/12 04:20:56;;;;;;;2.25;1.90;;;16.30;73.10;;;;;;5099163;28;20051;-72
2022/07/12 04:23:22;;;;;;;2.30;2.08;;;16.40;73.40;;;;;;5117019;28;20027;-72
2022/07/12 04:25:48;;;;;;;4.05;2.20;;;16.40;73.50;;;;;;5099047;28;20486;-73
2022/07/12 04:28:13;;;;;;;2.42;2.10;;;16.40;73.70;;;;;;5116819;28;20039;-72
2022/07/12 04:30:39;;;;;;;2.47;1.98;;;16.30;73.90;;;;;;5116985;28;20039;-73
2022/07/12 04:33:05;;;;;;;2.65;2.30;;;16.20;74.20;;;;;;5098825;28;20037;-73
2022/07/12 04:35:31;;;;;;;3.15;2.60;;;16.30;74.70;;;;;;5116762;28;20027;-73
2022/07/12 04:37:56;;;;;;;3.55;2.85;;;16.40;74.60;;;;;;5116724;28;20032;-73
2022/07/12 04:40:22;;;;;;;2.72;2.22;;;16.40;75.00;;;;;;5116580;28;20032;-72
2022/07/12 04:42:47;;;;;;;4.45;2.78;;;16.30;75.10;;;;;;5116575;28;20028;-73
2022/07/12 04:45:13;;;;;;;4.03;2.88;;;16.40;75.20;;;;;;5116566;28;20106;-73
2022/07/12 04:47:39;;;;;;;3.78;2.90;;;16.40;75.50;;;;;;5098685;28;20024;-72
2022/07/12 04:50:06;;;;;;;4.80;3.47;;;16.50;75.70;;;;;;5098679;28;20036;-73
2022/07/12 04:52:33;;;;;;;5.20;3.80;;;16.60;75.90;;;;;;5116447;28;20024;-72
2022/07/12 04:54:58;;;;;;;6.47;4.47;;;16.60;76.30;;;;;;5098231;28;20039;-73
2022/07/12 04:57:24;;;;;;;7.72;4.43;;;16.60;76.70;;;;;;5098230;28;20170;-73
2022/07/12 04:59:49;;;;;;;5.45;3.72;;;16.60;76.80;;;;;;5116240;28;20028;-73
2022/07/12 05:02:15;;;;;;;4.32;3.83;;;16.70;77.00;;;;;;5116265;28;20024;-73
2022/07/12 05:04:41;;;;;;;7.32;4.32;;;16.80;76.80;;;;;;5116235;28;20044;-73
2022/07/12 05:07:06;;;;;;;5.60;4.38;;;16.90;76.90;;;;;;5116115;28;20042;-73
2022/07/12 05:09:32;;;;;;;6.03;4.80;;;16.90;76.90;;;;;;5116108;28;20028;-73
2022/07/12 05:11:58;;;;;;;5.75;4.68;;;17.00;76.90;;;;;;5116039;28;20029;-73
2022/07/12 05:14:24;;;;;;;6.25;4.75;;;17.00;77.00;;;;;;5115980;28;20028;-73
2022/07/12 05:16:49;;;;;;;6.85;5.50;;;17.00;77.10;;;;;;5115930;28;20032;-73
2022/07/12 05:19:15;;;;;;;9.13;5.68;;;17.10;77.30;;;;;;5115833;28;20035;-72
2022/07/12 05:21:42;;;;;;;7.78;6.20;;;17.10;77.30;;;;;;5115850;28;20020;-73
2022/07/12 05:24:07;;;;;;;10.25;6.78;;;17.20;77.50;;;;;;5115818;28;20020;-73
2022/07/12 05:26:34;;;;;;;10.05;7.20;;;17.30;77.60;;;;;;5098098;28;20020;-72
2022/07/12 05:29:00;;;;;;;9.35;7.60;;;17.30;77.60;;;;;;5115689;28;20108;-71
2022/07/12 05:31:26;;;;;;;13.18;8.57;;;17.40;77.60;;;;;;5115697;28;20028;-71
2022/07/12 05:33:52;;;;;;;12.27;8.52;;;17.40;78.40;;;;;;5115636;28;20016;-71
2022/07/12 05:36:18;;;;;;;11.10;8.60;;;17.40;78.50;;;;;;5115578;28;20035;-71
2022/07/12 05:38:44;;;;;;;12.55;9.35;;;17.50;78.60;;;;;;5115454;28;20024;-72
2022/07/12 05:41:09;;;;;;;14.15;9.30;;;17.50;78.60;;;;;;5115639;28;20036;-71
2022/07/12 05:43:35;;;;;;;13.38;9.63;;;17.60;78.80;;;;;;5115420;28;20043;-72
2022/07/12 05:46:01;;;;;;;14.73;9.50;;;17.70;79.20;;;;;;5115358;28;20032;-72
2022/07/12 05:48:26;;;;;;;14.23;9.45;;;17.70;79.30;;;;;;5115318;28;20029;-71
2022/07/12 05:50:52;;;;;;;13.68;10.15;;;17.80;79.40;;;;;;5115317;28;20038;-72
2022/07/12 05:53:24;;;;;;;13.52;10.40;;;17.80;80.00;;;;;;5115219;28;20064;-71
2022/07/12 05:55:51;;;;;;;13.07;9.90;;;17.90;80.70;;;;;;5115405;28;20024;-71
2022/07/12 05:58:18;;;;;;;14.60;10.32;;;17.90;80.70;;;;;;5114976;28;20048;-71
2022/07/12 06:00:44;;;;;;;15.93;10.10;;;18.00;80.60;;;;;;5115041;28;20031;-71
2022/07/12 06:03:11;;;;;;;15.13;10.30;;;18.00;80.60;;;;;;5097146;28;20016;-71
2022/07/12 06:05:37;;;;;;;14.52;11.02;;;18.10;80.50;;;;;;5114250;28;20027;-72
2022/07/12 06:08:03;;;;;;;14.80;10.18;;;18.20;80.40;;;;;;5114925;28;20024;-71
2022/07/12 06:10:29;;;;;;;17.88;11.38;;;18.30;80.30;;;;;;5114901;28;20028;-71
2022/07/12 06:12:55;;;;;;;14.63;10.27;;;18.40;80.20;;;;;;5114818;28;20047;-72
2022/07/12 06:15:20;;;;;;;15.05;10.82;;;18.50;80.20;;;;;;5114830;28;20028;-72
2022/07/12 06:17:47;;;;;;;16.85;11.27;;;18.50;80.20;;;;;;5114757;28;20052;-72
2022/07/12 06:20:13;;;;;;;17.42;11.93;;;18.60;80.20;;;;;;5114658;28;20048;-73
2022/07/12 06:22:39;;;;;;;17.20;12.13;;;18.70;80.40;;;;;;5114715;28;20020;-72
2022/07/12 06:25:05;;;;;;;16.85;12.43;;;18.70;80.80;;;;;;5114598;28;20043;-73
2022/07/12 06:27:31;;;;;;;15.52;10.60;;;18.80;81.50;;;;;;5114737;28;20027;-73
2022/07/12 06:29:57;;;;;;;14.05;9.98;;;18.90;80.90;;;;;;5114386;28;20064;-73
2022/07/12 06:32:22;;;;;;;16.25;10.35;;;19.00;80.90;;;;;;5114472;28;20031;-72
2022/07/12 06:34:48;;;;;;;15.63;10.50;;;19.00;80.70;;;;;;5114440;28;20548;-72
2022/07/12 06:37:14;;;;;;;14.27;10.18;;;19.10;80.70;;;;;;5114551;28;20088;-73
2022/07/12 06:39:40;;;;;;;17.80;10.15;;;19.10;80.50;;;;;;5114277;28;20386;-72
2022/07/12 06:42:06;;;;;;;14.55;10.00;;;19.20;80.30;;;;;;5114431;28;20035;-72
2022/07/12 06:44:33;;;;;;;14.48;10.45;;;19.20;80.10;;;;;;5114282;28;20396;-72
2022/07/12 06:46:59;;;;;;;13.75;10.02;;;19.30;80.20;;;;;;5114353;28;20027;-72
2022/07/12 06:49:25;;;;;;;15.30;10.70;;;19.40;80.60;;;;;;5114138;28;20072;-72
2022/07/12 06:51:51;;;;;;;15.73;11.02;;;19.40;80.40;;;;;;5114164;28;20020;-72
2022/07/12 06:54:17;;;;;;;15.18;10.55;;;19.40;80.50;;;;;;5114084;28;20028;-72
2022/07/12 06:56:43;;;;;;;15.27;10.88;;;19.50;80.30;;;;;;5113905;28;20059;-72
2022/07/12 06:59:12;;;;;;;15.65;12.07;;;19.50;80.50;;;;;;5114147;28;20028;-72
2022/07/12 07:01:37;;;;;;;15.77;10.77;;;19.60;81.00;;;;;;5113942;28;20028;-72
2022/07/12 07:04:04;;;;;;;17.48;12.13;;;19.70;80.60;;;;;;5113977;28;20110;-73
2022/07/12 07:06:29;;;;;;;14.98;10.70;;;19.80;80.70;;;;;;5113892;28;20020;-73
2022/07/12 07:08:55;;;;;;;14.15;10.13;;;19.80;81.00;;;;;;5113865;28;20051;-73
2022/07/12 07:11:21;;;;;;;15.43;10.15;;;19.90;81.20;;;;;;5113960;28;20058;-73
2022/07/12 07:13:46;;;;;;;14.48;10.82;;;20.00;80.40;;;;;;5113930;28;20039;-73
2022/07/12 07:16:13;;;;;;;13.20;9.73;;;20.00;79.90;;;;;;5096209;28;20039;-73
2022/07/12 07:18:40;;;;;;;13.82;9.23;;;20.10;79.90;;;;;;5113655;28;20012;-73
2022/07/12 07:21:06;;;;;;;13.70;9.52;;;20.30;79.80;;;;;;5113722;28;20016;-73
2022/07/12 07:23:32;;;;;;;12.30;8.88;;;20.20;78.90;;;;;;5113725;28;20027;-73
2022/07/12 07:25:58;;;;;;;12.07;8.23;;;20.30;79.10;;;;;;5113638;28;20016;-73
2022/07/12 07:28:23;;;;;;;14.45;8.70;;;20.40;78.70;;;;;;5113544;28;20046;-73
2022/07/12 07:30:52;;;;;;;10.02;7.97;;;20.40;78.30;;;;;;5113595;28;20025;-73
2022/07/12 07:33:21;;;;;;;11.88;8.60;;;20.50;78.30;;;;;;5113569;28;20029;-73
2022/07/12 07:35:49;;;;;;;10.02;7.35;;;20.50;78.10;;;;;;5113498;28;20024;-73
2022/07/12 07:38:15;;;;;;;10.07;7.75;;;20.60;77.30;;;;;;5113515;28;20020;-73
2022/07/12 07:40:42;;;;;;;8.90;6.93;;;20.70;77.30;;;;;;5113548;28;20036;-73
2022/07/12 07:43:07;;;;;;;13.15;8.35;;;20.80;76.20;;;;;;5113471;28;20021;-73
2022/07/12 07:45:33;;;;;;;9.90;7.63;;;20.80;76.20;;;;;;5113440;28;20016;-73
2022/07/12 07:47:58;;;;;;;9.43;7.22;;;20.90;76.00;;;;;;5095691;28;20522;-73
2022/07/12 07:50:24;;;;;;;11.27;7.57;;;20.90;75.50;;;;;;5113562;28;20020;-73
2022/07/12 07:52:51;;;;;;;10.75;7.03;;;21.00;75.50;;;;;;5113433;28;20077;-73
2022/07/12 07:55:17;;;;;;;8.32;6.43;;;21.10;75.70;;;;;;5113299;28;20087;-73
2022/07/12 07:57:43;;;;;;;9.30;6.55;;;21.10;74.80;;;;;;5113129;28;20052;-73
2022/07/12 08:00:09;;;;;;;8.48;6.32;;;21.10;74.60;;;;;;5113214;28;20036;-73
2022/07/12 08:02:35;;;;;;;9.50;6.30;;;21.10;74.30;;;;;;5113423;28;20020;-73
2022/07/12 08:05:01;;;;;;;9.77;7.00;;;21.20;74.90;;;;;;5113245;28;20029;-73
2022/07/12 08:07:27;;;;;;;10.55;7.10;;;21.20;74.80;;;;;;5113229;28;20036;-73
2022/07/12 08:09:52;;;;;;;9.63;7.47;;;21.30;74.80;;;;;;5113196;28;20025;-73
2022/07/12 08:12:18;;;;;;;10.68;7.55;;;21.30;75.10;;;;;;5113163;28;20025;-73
2022/07/12 08:14:44;;;;;;;10.30;7.55;;;21.40;74.90;;;;;;5095312;28;20382;-73
2022/07/12 08:17:09;;;;;;;9.85;7.30;;;21.50;74.40;;;;;;5113181;28;20024;-73
2022/07/12 08:19:35;;;;;;;9.73;6.97;;;21.60;74.40;;;;;;5113004;28;20474;-73
2022/07/12 08:22:01;;;;;;;9.07;7.50;;;21.70;73.40;;;;;;5113117;28;20012;-73
2022/07/12 08:24:26;;;;;;;11.90;7.70;;;21.80;74.20;;;;;;5113097;28;20036;-73
2022/07/12 08:26:52;;;;;;;13.35;9.00;;;21.90;73.40;;;;;;5113052;28;20023;-73
2022/07/12 08:29:17;;;;;;;12.18;8.88;;;22.00;73.70;;;;;;5114616;28;20495;-73
2022/07/12 08:31:43;;;;;;;12.57;9.27;;;22.00;72.90;;;;;;5116859;28;20043;-73
2022/07/12 08:34:09;;;;;;;12.10;8.32;;;22.00;73.30;;;;;;5116779;28;20087;-73
2022/07/12 08:36:34;;;;;;;10.43;8.45;;;22.10;72.00;;;;;;5116757;28;20023;-73
2022/07/12 08:39:00;;;;;;;11.15;8.68;;;22.10;71.10;;;;;;5098726;28;20078;-73
2022/07/12 08:41:26;;;;;;;11.65;9.35;;;22.10;71.00;;;;;;5116668;28;20080;-73
2022/07/12 08:43:51;;;;;;;9.68;8.05;;;22.20;71.10;;;;;;5098704;28;20028;-73
2022/07/12 08:46:17;;;;;;;10.80;8.60;;;22.20;71.40;;;;;;5116576;28;20032;-73
2022/07/12 08:48:43;;;;;;;10.80;8.45;;;22.30;71.60;;;;;;5116649;28;20032;-73
2022/07/12 08:51:10;;;;;;;9.90;8.15;;;22.30;70.90;;;;;;5116472;28;20050;-73
2022/07/12 08:53:36;;;;;;;10.13;8.60;;;22.30;70.80;;;;;;5098429;28;20048;-73
2022/07/12 08:56:04;;;;;;;11.77;8.65;;;22.40;70.60;;;;;;5116383;28;20099;-74
2022/07/12 08:58:30;;;;;;;10.75;8.15;;;22.50;70.00;;;;;;5098168;28;20056;-74
2022/07/12 09:00:55;;;;;;;10.15;7.57;;;22.50;68.70;;;;;;5116382;28;20039;-74
2022/07/12 09:03:21;;;;;;;12.35;8.95;;;22.60;68.40;;;;;;5098276;28;20028;-74
2022/07/12 09:05:48;;;;;;;10.98;8.48;;;22.60;67.60;;;;;;5116217;28;20032;-74
2022/07/12 09:08:14;;;;;;;9.95;8.10;;;22.70;68.10;;;;;;5116189;28;20023;-74
2022/07/12 09:10:49;;;;;;;9.10;7.22;;;22.70;69.40;;;;;;5098205;28;20036;-74
2022/07/12 09:13:14;;;;;;;9.90;6.90;;;22.80;68.20;;;;;;5098130;28;20051;-74
2022/07/12 09:15:40;;;;;;;9.05;7.18;;;22.90;68.40;;;;;;5116010;28;20032;-74
2022/07/12 09:18:14;;;;;;;7.30;6.32;;;22.90;67.90;;;;;;5115991;28;20035;-74
2022/07/12 09:20:43;;;;;;;10.05;8.27;;;23.00;66.40;;;;;;5115921;28;20031;-73
2022/07/12 09:23:12;;;;;;;8.55;7.25;;;23.00;66.50;;;;;;5115839;28;20020;-72
2022/07/12 09:25:48;;;;;;;8.70;7.05;;;23.20;67.10;;;;;;5097959;28;20020;-73
2022/07/12 09:28:15;;;;;;;9.95;8.23;;;23.20;66.90;;;;;;5115878;28;20020;-73
2022/07/12 09:30:49;;;;;;;10.88;7.57;;;23.20;66.20;;;;;;5115746;28;20016;-73
2022/07/12 09:36:06;;;;;;;9.32;6.78;;;23.30;66.50;;;;;;5100717;28;20065;-73
2022/07/12 09:38:37;;;;;;;9.32;6.38;;;23.30;65.20;;;;;;5115875;28;20012;-72
2022/07/12 09:41:03;;;;;;;9.18;6.60;;;23.30;65.30;;;;;;5114408;28;20024;-73
2022/07/12 09:43:30;;;;;;;9.23;6.57;;;23.40;64.40;;;;;;5097645;28;20042;-73
2022/07/12 09:45:57;;;;;;;9.45;7.53;;;23.50;64.10;;;;;;5115447;28;20044;-73
2022/07/12 09:48:25;;;;;;;11.65;8.57;;;23.60;64.40;;;;;;5115422;28;20020;-73
2022/07/12 09:50:51;;;;;;;11.15;8.82;;;23.60;65.30;;;;;;5115365;28;20047;-72
2022/07/12 09:53:26;;;;;;;11.10;8.20;;;23.60;64.10;;;;;;5115271;28;20035;-73
2022/07/12 09:55:52;;;;;;;11.75;7.90;;;23.70;64.90;;;;;;5115297;28;20020;-73
2022/07/12 09:58:24;;;;;;;10.30;7.22;;;23.80;65.10;;;;;;5114937;28;20059;-73
2022/07/12 10:00:53;;;;;;;11.57;7.73;;;23.90;64.50;;;;;;5115112;28;20024;-73
2022/07/12 10:03:25;;;;;;;9.45;6.95;;;24.00;63.60;;;;;;5114992;28;20016;-73
2022/07/12 10:05:53;;;;;;;10.23;7.22;;;24.00;62.30;;;;;;5115009;28;20040;-73
2022/07/12 10:08:21;;;;;;;10.68;7.70;;;24.10;65.90;;;;;;5114984;28;20021;-73
2022/07/12 10:10:47;;;;;;;9.88;7.30;;;24.20;66.10;;;;;;5114916;28;20024;-73
2022/07/12 10:13:14;;;;;;;9.32;7.45;;;24.30;65.00;;;;;;5114861;28;20028;-73
2022/07/12 10:15:43;;;;;;;8.52;6.82;;;24.40;62.90;;;;;;5114852;28;20466;-72
2022/07/12 10:18:16;;;;;;;9.02;7.13;;;24.40;62.80;;;;;;5114791;28;20105;-73
2022/07/12 10:20:43;;;;;;;8.13;6.70;;;24.40;60.10;;;;;;5114777;28;20051;-73
2022/07/12 10:23:31;;;;;;;7.90;6.28;;;24.50;62.10;;;;;;5096827;28;20016;-74
2022/07/12 10:25:57;;;;;;;8.00;6.18;;;24.50;61.60;;;;;;5096703;28;20024;-73
2022/07/12 10:28:23;;;;;;;7.82;6.63;;;24.60;61.40;;;;;;5114550;28;20024;-73
2022/07/12 10:30:50;;;;;;;7.63;6.10;;;24.60;60.30;;;;;;5096585;28;20032;-73
2022/07/12 10:33:15;;;;;;;9.43;6.53;;;24.70;60.80;;;;;;5114522;28;20517;-74
2022/07/12 10:36:06;;;;;;;8.90;7.20;;;24.70;61.10;;;;;;5114502;28;20024;-74
2022/07/12 10:38:35;;;;;;;9.50;7.03;;;24.70;60.50;;;;;;5114452;28;20027;-73
2022/07/12 10:41:24;;;;;;;8.02;5.80;;;24.70;60.10;;;;;;5096611;28;20039;-73
2022/07/12 10:44:08;;;;;;;10.07;6.13;;;24.80;60.30;;;;;;5114306;28;20021;-72
2022/07/12 10:46:34;;;;;;;8.45;6.38;;;24.90;60.20;;;;;;5114331;28;20054;-73
2022/07/12 10:49:45;;;;;;;7.22;6.40;;;24.90;61.20;;;;;;5114254;28;20051;-73
2022/07/12 10:52:11;;;;;;;5.75;5.05;;;25.00;58.10;;;;;;5108977;28;20028;-73
2022/07/12 10:54:39;;;;;;;7.45;5.68;;;25.10;60.60;;;;;;5114150;28;20063;-73
2022/07/12 10:57:06;;;;;;;7.65;5.63;;;25.10;61.80;;;;;;5113867;28;20048;-73
2022/07/12 10:59:36;;;;;;;5.55;4.53;;;25.30;60.80;;;;;;5096126;28;20082;-73
2022/07/12 11:02:03;;;;;;;8.38;5.90;;;25.30;60.90;;;;;;5096006;28;20035;-73
2022/07/12 11:04:28;;;;;;;6.28;5.15;;;25.40;60.30;;;;;;5113993;28;20048;-73
2022/07/12 11:06:55;;;;;;;5.45;3.75;;;25.50;60.30;;;;;;5113916;28;20028;-73
2022/07/12 11:09:21;;;;;;;5.78;3.95;;;25.60;57.50;;;;;;5113944;28;20032;-73
2022/07/12 11:11:49;;;;;;;4.47;3.65;;;25.60;57.70;;;;;;5079324;28;20036;-73
2022/07/12 11:14:34;;;;;;;6.53;4.50;;;25.70;57.80;;;;;;5113839;28;20055;-72
2022/07/12 11:16:59;;;;;;;7.28;4.50;;;25.80;59.50;;;;;;5113804;28;20024;-72
2022/07/12 11:19:28;;;;;;;7.07;4.82;;;25.80;58.90;;;;;;5113825;28;20467;-72
2022/07/12 11:21:58;;;;;;;5.53;4.30;;;25.90;57.40;;;;;;5113730;28;20083;-73
2022/07/12 11:24:31;;;;;;;5.60;4.07;;;25.90;57.40;;;;;;5096374;28;20024;-73
2022/07/12 11:26:59;;;;;;;4.03;3.53;;;26.00;56.80;;;;;;5113661;28;20031;-72
2022/07/12 11:29:25;;;;;;;4.05;3.30;;;26.00;58.00;;;;;;5113588;28;20028;-72
2022/07/12 11:32:00;;;;;;;5.32;3.75;;;26.10;57.20;;;;;;5113623;28;20024;-73
2022/07/12 11:34:26;;;;;;;5.95;4.00;;;26.00;56.30;;;;;;5113614;28;20032;-73
2022/07/12 11:37:01;;;;;;;6.13;3.47;;;25.90;57.70;;;;;;5113583;28;20053;-72
2022/07/12 11:39:45;;;;;;;7.30;4.55;;;25.90;56.80;;;;;;5113339;28;20035;-72
2022/07/12 11:42:12;;;;;;;5.88;4.60;;;25.90;57.60;;;;;;5095994;28;20088;-72
2022/07/12 11:44:51;;;;;;;4.97;3.45;;;26.00;57.30;;;;;;5095551;28;20024;-72
2022/07/12 11:47:22;;;;;;;6.47;4.00;;;26.10;58.60;;;;;;5113456;28;20039;-72
2022/07/12 11:49:52;;;;;;;5.78;4.15;;;26.10;56.50;;;;;;5113616;28;20028;-72
2022/07/12 11:52:22;;;;;;;5.13;3.80;;;26.20;55.50;;;;;;5113421;28;20078;-72
2022/07/12 11:54:50;;;;;;;4.95;3.55;;;26.20;56.60;;;;;;5113337;28;20029;-72
2022/07/12 11:57:20;;;;;;;4.65;3.92;;;26.20;57.70;;;;;;5113176;28;20414;-72
2022/07/12 11:59:46;;;;;;;5.30;4.00;;;26.20;54.50;;;;;;5113273;28;20059;-72
2022/07/12 12:02:13;;;;;;;5.03;3.50;;;26.20;55.80;;;;;;5095641;28;20031;-73
2022/07/12 12:04:50;;;;;;;4.43;3.53;;;26.30;56.30;;;;;;5115664;28;20043;-72
2022/07/12 12:07:17;;;;;;;4.65;3.10;;;26.50;55.30;;;;;;5117367;28;20024;-72
2022/07/12 12:10:06;;;;;;;3.80;2.90;;;26.50;54.40;;;;;;5117332;28;20034;-72
2022/07/12 12:12:45;;;;;;;5.03;3.90;;;26.50;55.90;;;;;;5117300;28;20041;-72
2022/07/12 12:15:16;;;;;;;5.00;3.78;;;26.50;54.30;;;;;;5099404;28;20084;-72
2022/07/12 12:17:58;;;;;;;6.50;3.47;;;26.50;53.80;;;;;;5099212;28;20039;-73
2022/07/12 12:20:32;;;;;;;5.85;4.05;;;26.60;56.60;;;;;;5117093;28;20028;-73
2022/07/12 12:22:59;;;;;;;6.43;3.38;;;26.70;55.00;;;;;;5117086;28;20411;-73
2022/07/12 12:25:27;;;;;;;4.40;3.40;;;26.60;54.40;;;;;;5099159;28;20012;-72
2022/07/12 12:27:56;;;;;;;4.47;3.10;;;26.60;54.40;;;;;;5116910;28;20028;-72
2022/07/12 12:30:23;;;;;;;3.22;2.50;;;26.70;55.10;;;;;;5116950;28;20025;-72
2022/07/12 12:32:52;;;;;;;4.13;3.30;;;26.70;52.70;;;;;;5116854;28;20028;-73
2022/07/12 12:35:21;;;;;;;5.60;2.63;;;26.80;51.70;;;;;;5116793;28;20030;-72
2022/07/12 12:37:57;;;;;;;3.47;2.55;;;26.90;51.90;;;;;;5116782;28;20040;-73
2022/07/12 12:40:25;;;;;;;3.63;3.08;;;26.90;51.00;;;;;;5116688;28;20028;-73
2022/07/12 12:42:51;;;;;;;4.07;2.95;;;27.00;49.90;;;;;;5116686;28;20016;-72
2022/07/12 12:45:24;;;;;;;3.92;3.40;;;27.00;50.70;;;;;;5116678;28;20024;-73
2022/07/12 12:47:55;;;;;;;4.60;3.20;;;27.10;51.70;;;;;;5116609;28;20044;-72
2022/07/12 12:50:46;;;;;;;4.50;2.85;;;27.10;50.20;;;;;;5098589;28;20115;-73
2022/07/12 12:53:16;;;;;;;5.15;2.58;;;27.10;48.90;;;;;;5098574;28;20047;-72